Terminal Aerodrome Forecast
Issued by NWS Wilmington, OH

Current Version | Previous Version | Graphics & Text | Print | Product List | Glossary On
Versions: 1 2 3 4 5 6 7 8 9 10 11 12 13 14 15
000
FTUS41 KILN 252300
TAFCMH
TAF
KCMH 252330Z 2600/2624 21008KT P6SM OVC028
     FM260400 18006KT P6SM SCT200
     FM261600 21010G20KT P6SM SCT200=

USA.gov is the U.S. government's official web portal to all federal, state and local government web resources and services.